Nearby METAR Reports

 

KGRB - Ashwaubenon, Wisconsin, USA
Distance from station: NW 5mi, 8km
Updated: Fri, 07-Oct-2022 11:23am CDT
Overcast
Overcast
 Wind from N
Wind: N 12 mph , 19 km/h
Temperature: 46°F , 8°C
Wind Chill: 40°F , 4°C
Dew Point: 34°F , 1°C
Humidity: 62%
Barometer: 30.45 inHg , 1031.2 hPa
Clouds: Overcast
Visibility: 10 miles , 16 km
Cloud details: Partly cloudy 2900 ft
Overcast 3900 ft
2022/10/07 16:23 KGRB 071623Z 01010KT 10SM SCT029 OVC039 08/01 A3045 RMK AO2 T00830006
KATW - Appleton/Outagam, Wisconsin, USA
Distance from station: WSW 26mi, 42km
Updated: Fri, 07-Oct-2022 10:45am CDT
Mostly cloudy
Mostly cloudy
 Wind from N
Wind: N 12 mph , 19 km/h
Temperature: 41°F , 5°C
Wind Chill: 34°F , 1°C
Dew Point: 30°F , -1°C
Humidity: 66%
Barometer: 30.44 inHg , 1030.8 hPa
Clouds: Mostly cloudy
Visibility: 10 miles , 16 km
Cloud details: Mostly cloudy 2500 ft
2022/10/07 15:45 KATW 071545Z 35010KT 10SM BKN025 05/M01 A3044
 
KMTW - Manitowac Muni, Wisconsin, USA
Distance from station: SE 29mi, 47km
Updated: Fri, 07-Oct-2022 10:56am CDT
Mostly cloudy
Mostly cloudy
 Wind from N
Wind: N 17 mph , 28 km/h, Gust: 23 mph , 37 km/h
Temperature: 45°F , 7°C
Wind Chill: 38°F , 3°C
Dew Point: 30°F , -1°C
Humidity: 57%
Barometer: 30.43 inHg , 1030.5 hPa
Clouds: Mostly cloudy
Visibility: 10 miles , 16 km
Cloud details: Mostly cloudy 3100 ft
2022/10/07 15:56 KMTW 071556Z AUTO 35015G20KT 10SM BKN031 07/M01 A3043 RMK AO2 SLP310 T00721006
KOCQ - Oconto, Wisconsin, USA
Distance from station: NNE 30mi, 49km
Updated: Fri, 07-Oct-2022 11:35am CDT
Overcast
Overcast
 Wind from N
Wind: N 14 mph , 22 km/h, Gust: 17 mph , 28 km/h
Temperature: 43°F , 6°C
Wind Chill: 36°F , 2°C
Dew Point: 30°F , -1°C
Humidity: 61%
Barometer: 30.45 inHg , 1031.2 hPa
Clouds: Overcast
Visibility: 10 miles , 16 km
Cloud details: Mostly cloudy 3200 ft
Overcast 4000 ft
2022/10/07 16:35 KOCQ 071635Z AUTO 36012G15KT 10SM BKN032 OVC040 06/M01 A3045 RMK AO1 T00641009
 
KEZS - Shawano Muni, Wisconsin, USA
Distance from station: NW 35mi, 56km
Updated: Fri, 07-Oct-2022 11:55am CDT
Partly cloudy
Partly cloudy
 Wind from N
Wind: N 8 mph , 13 km/h
Temperature: 46°F , 8°C
Wind Chill: 42°F , 6°C
Dew Point: 32°F , 0°C
Humidity: 57%
Barometer: 30.46 inHg , 1031.5 hPa
Clouds: Partly cloudy
Visibility: 10 miles , 16 km
Cloud details: Partly cloudy 3500 ft
Partly cloudy 4100 ft
2022/10/07 16:55 KEZS 071655Z AUTO 01007KT 10SM SCT035 SCT041 08/00 A3046 RMK AO2 T00840000
KCLI - Clintonville, Wisconsin, USA
Distance from station: WNW 36mi, 58km
Updated: Fri, 07-Oct-2022 11:35am CDT
Mostly cloudy
Mostly cloudy
 Wind from N
Wind: N 8 mph , 13 km/h
Temperature: 45°F , 7°C
Wind Chill: 41°F , 5°C
Dew Point: 28°F , -2°C
Humidity: 53%
Barometer: 30.48 inHg , 1032.2 hPa
Clouds: Mostly cloudy
Visibility: 10 miles , 16 km
Cloud details: Mostly cloudy 3700 ft
2022/10/07 16:35 KCLI 071635Z AUTO 35007KT 10SM BKN037 07/M02 A3048 RMK AO2 T00691020
 
KOSH - Oshkosh, Wisconsin, USA
Distance from station: SW 41mi, 66km
Updated: Fri, 07-Oct-2022 10:53am CDT
Few Clouds
Few Clouds
 Wind from N
Wind: N 14 mph , 22 km/h
Temperature: 45°F , 7°C
Wind Chill: 39°F , 4°C
Dew Point: 34°F , 1°C
Humidity: 66%
Barometer: 30.45 inHg , 1031.2 hPa
Clouds: Few Clouds
Visibility: 10 miles , 16 km
Cloud details: Few Clouds 3000 ft
2022/10/07 15:53 KOSH 071553Z 01012KT 10SM FEW030 07/01 A3045 RMK AO2 SLP319 T00720006
KSUE - Sturgeon Bay, Wisconsin, USA
Distance from station: NE 42mi, 68km
Updated: Fri, 07-Oct-2022 11:43am CDT
Overcast
Overcast
 Wind from N
Wind: N 13 mph , 20 km/h, Gust: 23 mph , 37 km/h
Temperature: 43°F , 6°C
Wind Chill: 36°F , 2°C
Dew Point: 30°F , -1°C
Humidity: 61%
Barometer: 30.44 inHg , 1030.8 hPa
Clouds: Overcast
Visibility: 10 miles , 16 km
Cloud details: Partly cloudy 2800 ft
Overcast 3700 ft
2022/10/07 16:43 KSUE 071643Z AUTO 01011G20KT 10SM SCT028 OVC037 06/M01 A3044 RMK AO2
 
KSBM - Sheboygan, Wisconsin, USA
Distance from station: SSE 46mi, 75km
Updated: Fri, 07-Oct-2022 10:53am CDT
Mostly cloudy
Mostly cloudy
 Wind from N
Wind: N 16 mph , 26 km/h, Gust: 25 mph , 41 km/h
Temperature: 46°F , 8°C
Wind Chill: 39°F , 4°C
Dew Point: 32°F , 0°C
Humidity: 57%
Barometer: 30.42 inHg , 1030.1 hPa
Clouds: Mostly cloudy
Visibility: 10 miles , 16 km
Cloud details: Mostly cloudy 3000 ft
2022/10/07 15:53 KSBM 071553Z AUTO 01014G22KT 10SM BKN030 08/00 A3042 RMK AO2 SLP308 T00780000
KPCZ - Waupaca, Wisconsin, USA
Distance from station: W 48mi, 77km
Updated: Fri, 07-Oct-2022 11:35am CDT
Mostly cloudy
Mostly cloudy
 Wind from N
Wind: N 13 mph , 20 km/h, Gust: 16 mph , 26 km/h
Temperature: 48°F , 9°C
Wind Chill: 43°F , 6°C
Dew Point: 30°F , -1°C
Humidity: 50%
Barometer: 30.47 inHg , 1031.8 hPa
Clouds: Mostly cloudy
Visibility: 10 miles , 16 km
Cloud details: Mostly cloudy 3700 ft
Mostly cloudy 4300 ft
2022/10/07 16:35 KPCZ 071635Z AUTO 01011G14KT 340V040 10SM BKN037 BKN043 09/M01 A3047 RMK AO2 T00901008